createdAt,value
2019-01-25T00:00:25.554Z,67.90
2019-01-25T00:02:53.990Z,76.35
2019-01-25T00:05:22.446Z,68.02
2019-01-25T00:07:50.929Z,68.60
2019-01-25T00:10:19.367Z,70.78
2019-01-25T00:12:47.776Z,71.37
2019-01-25T00:15:16.368Z,71.53
2019-01-25T00:17:44.783Z,71.90
2019-01-25T00:20:14.456Z,61.02
2019-01-25T00:22:42.945Z,68.17
2019-01-25T00:25:11.649Z,65.80
2019-01-25T00:27:40.081Z,58.33
2019-01-25T00:30:12.156Z,62.85
2019-01-25T00:32:40.853Z,58.15
2019-01-25T00:35:09.757Z,72.90
2019-01-25T00:37:38.255Z,58.60
2019-01-25T00:40:12.285Z,65.72
2019-01-25T00:42:40.718Z,52.15
2019-01-25T00:45:11.187Z,54.98
2019-01-25T00:47:39.690Z,50.15
2019-01-25T00:50:14.295Z,49.20
2019-01-25T00:52:42.776Z,51.08
2019-01-25T00:55:11.858Z,60.12
2019-01-25T00:57:41.260Z,49.08
2019-01-25T01:00:21.445Z,46.35
2019-01-25T01:02:50.115Z,45.88
2019-01-25T01:05:19.087Z,45.60
2019-01-25T01:07:47.840Z,48.30
2019-01-25T01:10:16.413Z,46.10
2019-01-25T01:12:44.847Z,39.45
2019-01-25T01:15:14.347Z,41.85
2019-01-25T01:17:42.761Z,49.50
2019-01-25T01:20:16.386Z,56.90
2019-01-25T01:22:44.952Z,45.43
2019-01-25T01:25:14.290Z,45.08
2019-01-25T01:27:42.953Z,46.92
2019-01-25T01:30:14.601Z,47.90
2019-01-25T01:32:43.024Z,42.73
2019-01-25T01:35:11.528Z,49.15
2019-01-25T01:37:40.034Z,48.17
2019-01-25T01:40:11.539Z,46.98
2019-01-25T01:42:39.953Z,46.63
2019-01-25T01:45:08.529Z,57.03
2019-01-25T01:47:37.203Z,53.90
2019-01-25T01:50:08.720Z,52.75
2019-01-25T01:52:37.216Z,51.10
2019-01-25T01:55:06.499Z,45.92
2019-01-25T01:57:35.003Z,58.55
2019-01-25T02:00:05.380Z,65.57
2019-01-25T02:02:33.805Z,50.35
2019-01-25T02:05:02.309Z,54.50
2019-01-25T02:07:30.757Z,55.20
2019-01-25T02:09:59.204Z,46.98
2019-01-25T02:12:27.622Z,62.17
2019-01-25T02:14:56.086Z,57.78
2019-01-25T02:17:24.550Z,44.45
2019-01-25T02:19:52.985Z,54.95
2019-01-25T02:22:21.468Z,58.90
2019-01-25T02:24:49.889Z,58.33
2019-01-25T02:27:18.324Z,59.88
2019-01-25T02:29:46.746Z,54.10
2019-01-25T02:32:15.263Z,52.20
2019-01-25T02:34:43.687Z,66.12
2019-01-25T02:37:12.145Z,66.60
2019-01-25T02:39:40.561Z,67.65
2019-01-25T02:42:09.065Z,57.23
2019-01-25T02:44:37.508Z,69.53
2019-01-25T02:47:05.955Z,62.63
2019-01-25T02:49:34.394Z,64.07
2019-01-25T02:52:02.822Z,58.33
2019-01-25T02:54:31.262Z,59.42
2019-01-25T02:56:59.709Z,59.10
2019-01-25T02:59:30.813Z,66.23
2019-01-25T03:01:59.244Z,61.85
2019-01-25T03:04:27.706Z,61.60
2019-01-25T03:06:56.210Z,65.75
2019-01-25T03:09:24.624Z,57.65
2019-01-25T03:11:53.136Z,59.50
2019-01-25T03:14:21.566Z,61.40
2019-01-25T03:16:50.008Z,55.25
2019-01-25T03:19:18.428Z,54.70
2019-01-25T03:21:46.856Z,57.05
2019-01-25T03:24:15.304Z,58.15
2019-01-25T03:26:43.813Z,62.67
2019-01-25T03:29:12.241Z,52.55
2019-01-25T03:31:40.688Z,59.80
2019-01-25T03:34:09.105Z,57.65
2019-01-25T03:36:38.507Z,55.85
2019-01-25T03:39:08.258Z,65.78
2019-01-25T03:41:36.780Z,55.28
2019-01-25T03:44:05.634Z,61.30
2019-01-25T03:46:34.073Z,60.08
2019-01-25T03:49:02.495Z,63.50
2019-01-25T03:51:30.993Z,56.80
2019-01-25T03:53:59.492Z,68.25
2019-01-25T03:56:27.912Z,58.00
2019-01-25T03:58:56.356Z,65.42
2019-01-25T04:01:24.840Z,62.03
2019-01-25T04:03:53.286Z,64.60
2019-01-25T04:06:21.706Z,56.80
2019-01-25T04:08:50.808Z,57.70
2019-01-25T04:11:19.319Z,60.12
2019-01-25T04:13:47.740Z,63.17
2019-01-25T04:16:16.175Z,62.78
2019-01-25T04:18:44.660Z,66.67
2019-01-25T04:21:13.349Z,58.83
2019-01-25T04:23:41.827Z,53.83
2019-01-25T04:26:10.242Z,57.50
2019-01-25T04:28:38.687Z,60.40
2019-01-25T04:31:07.111Z,58.55
2019-01-25T04:33:35.553Z,52.20
2019-01-25T04:36:04.318Z,57.10
2019-01-25T04:38:32.744Z,53.95
2019-01-25T04:41:01.195Z,54.08
2019-01-25T04:43:29.616Z,66.17
2019-01-25T04:45:58.042Z,58.98
2019-01-25T04:48:26.474Z,61.50
2019-01-25T04:50:54.906Z,69.00
2019-01-25T04:53:23.330Z,61.40
2019-01-25T04:55:51.749Z,62.70
2019-01-25T04:58:20.169Z,56.73
2019-01-25T05:00:48.577Z,58.78
2019-01-25T05:03:17.426Z,58.60
2019-01-25T05:05:45.976Z,69.92
2019-01-25T05:08:16.578Z,70.28
2019-01-25T05:10:44.994Z,59.60
2019-01-25T05:13:13.505Z,64.95
2019-01-25T05:15:41.909Z,71.22
2019-01-25T05:18:10.578Z,69.22
2019-01-25T05:20:39.175Z,66.75
2019-01-25T05:23:08.152Z,70.80
2019-01-25T05:25:36.556Z,72.25
2019-01-25T05:28:13.718Z,66.97
2019-01-25T05:30:54.257Z,68.33
2019-01-25T05:33:22.705Z,72.27
2019-01-25T05:35:51.276Z,82.80
2019-01-25T05:38:19.703Z,66.30
2019-01-25T05:40:48.133Z,74.20
2019-01-25T05:43:16.557Z,64.92
2019-01-25T05:45:46.061Z,66.07
2019-01-25T05:48:14.649Z,72.78
2019-01-25T05:50:44.016Z,75.03
2019-01-25T05:53:12.526Z,71.87
2019-01-25T05:55:40.932Z,94.77
2019-01-25T05:58:10.319Z,84.15
2019-01-25T06:00:42.909Z,87.02
2019-01-25T06:03:13.319Z,72.58
2019-01-25T06:05:42.179Z,84.22
2019-01-25T06:08:32.892Z,84.60
2019-01-25T06:11:03.241Z,72.40
2019-01-25T06:13:31.946Z,81.17
2019-01-25T06:16:00.512Z,82.35
2019-01-25T06:18:28.942Z,79.12
2019-01-25T06:20:58.588Z,75.20
2019-01-25T06:23:27.084Z,77.17
2019-01-25T06:25:57.164Z,68.50
2019-01-25T06:28:25.726Z,80.28
2019-01-25T06:30:54.390Z,81.75
2019-01-25T06:33:23.171Z,76.05
2019-01-25T06:35:51.584Z,79.00
2019-01-25T06:38:20.261Z,82.70
2019-01-25T06:40:48.749Z,80.35
2019-01-25T06:43:17.379Z,79.80
2019-01-25T06:45:45.784Z,86.63
2019-01-25T06:48:14.300Z,82.67
2019-01-25T06:50:42.789Z,80.60
2019-01-25T06:53:11.343Z,87.60
2019-01-25T06:55:39.783Z,83.55
2019-01-25T06:58:15.924Z,69.60
2019-01-25T07:00:54.956Z,68.75
2019-01-25T07:03:23.372Z,85.55
2019-01-25T07:05:51.804Z,71.70
2019-01-25T07:08:20.234Z,79.27
2019-01-25T07:10:48.665Z,78.10
2019-01-25T07:13:17.080Z,69.67
2019-01-25T07:15:45.523Z,77.20
2019-01-25T07:18:14.023Z,75.72
2019-01-25T07:20:42.460Z,69.70
2019-01-25T08:42:16.414Z,77.37
2019-01-25T08:44:44.825Z,71.28
2019-01-25T08:47:13.268Z,72.70
2019-01-25T08:49:41.712Z,64.67
2019-01-25T08:52:10.825Z,72.75
2019-01-25T08:54:39.505Z,67.47
2019-01-25T08:57:07.949Z,72.60
2019-01-25T08:59:36.946Z,70.50
2019-01-25T09:02:05.597Z,71.45
2019-01-25T09:04:34.017Z,69.47
2019-01-25T09:07:02.537Z,67.80
2019-01-25T09:09:30.966Z,69.10
2019-01-25T09:11:59.428Z,72.70
2019-01-25T09:14:27.874Z,71.67
2019-01-25T09:16:56.308Z,65.50
2019-01-25T09:19:24.736Z,75.65
2019-01-25T09:21:53.162Z,72.93
2019-01-25T09:24:21.617Z,75.37
2019-01-25T09:26:50.059Z,68.10
2019-01-25T09:29:18.510Z,66.13
2019-01-25T09:31:46.946Z,69.37
2019-01-25T09:34:15.433Z,68.15
2019-01-25T09:36:43.882Z,74.45
2019-01-25T09:39:12.296Z,70.67
2019-01-25T09:41:40.733Z,66.80
2019-01-25T09:44:09.167Z,72.20
2019-01-25T09:46:37.616Z,70.43
2019-01-25T09:49:06.172Z,65.25
2019-01-25T09:51:34.608Z,62.23
2019-01-25T09:54:03.047Z,66.77
2019-01-25T09:56:31.477Z,68.67
2019-01-25T09:58:59.926Z,67.63
2019-01-25T10:01:28.410Z,62.43
2019-01-25T10:03:56.840Z,63.73
2019-01-25T10:06:25.269Z,75.00
2019-01-25T10:08:53.685Z,64.42
2019-01-25T10:11:22.475Z,70.77
2019-01-25T10:13:50.901Z,60.47
2019-01-25T10:16:19.312Z,61.90
2019-01-25T10:18:47.726Z,61.03
2019-01-25T10:21:16.171Z,55.50
2019-01-25T10:23:44.586Z,60.00
2019-01-25T10:26:12.989Z,54.87
2019-01-25T10:28:41.482Z,57.43
2019-01-25T10:31:10.320Z,58.97
2019-01-25T10:33:38.919Z,64.27
2019-01-25T10:36:07.393Z,60.53
2019-01-25T10:38:35.899Z,62.07
2019-01-25T10:41:04.750Z,55.87
2019-01-25T10:43:33.168Z,53.53
2019-01-25T10:46:01.598Z,56.50
2019-01-25T10:48:30.016Z,57.67
2019-01-25T10:50:58.438Z,59.87
2019-01-25T10:53:26.860Z,55.60
2019-01-25T10:55:55.296Z,76.57
2019-01-25T10:58:23.733Z,56.60
2019-01-25T11:00:52.146Z,57.40
2019-01-25T11:03:20.570Z,55.00
2019-01-25T11:05:48.972Z,54.67
2019-01-25T11:08:17.396Z,54.13
2019-01-25T11:10:45.814Z,61.67
2019-01-25T11:13:15.167Z,50.00
2019-01-25T11:15:43.608Z,69.77
2019-01-25T11:18:12.042Z,59.47
2019-01-25T11:20:40.448Z,50.90
2019-01-25T11:23:08.886Z,51.00
2019-01-25T11:25:40.245Z,51.27
2019-01-25T11:28:08.664Z,52.83
2019-01-25T11:30:37.095Z,48.73
2019-01-25T11:33:05.584Z,45.90
2019-01-25T11:35:34.060Z,54.43
2019-01-25T11:38:02.538Z,43.90
2019-01-25T11:40:42.248Z,47.07
2019-01-25T11:43:10.664Z,50.57
2019-01-25T11:45:39.144Z,53.43
2019-01-25T11:48:10.683Z,47.30
2019-01-25T11:50:39.104Z,52.00
2019-01-25T11:53:07.523Z,46.63
2019-01-25T11:55:35.934Z,48.70
2019-01-25T11:58:04.628Z,51.47
2019-01-25T12:00:34.148Z,50.67
2019-01-25T12:03:02.572Z,50.60
2019-01-25T12:05:31.003Z,51.43
2019-01-25T12:07:59.717Z,45.53
2019-01-25T12:10:33.820Z,50.10
2019-01-25T12:13:02.286Z,52.87
2019-01-25T12:15:30.698Z,48.50
2019-01-25T12:17:59.132Z,67.53
2019-01-25T12:20:29.472Z,78.23
2019-01-25T12:22:57.979Z,49.60
2019-01-25T12:25:26.384Z,56.07
2019-01-25T12:27:55.181Z,51.70
2019-01-25T12:30:37.780Z,54.17
2019-01-25T12:33:06.771Z,61.77
2019-01-25T12:35:37.331Z,54.90
2019-01-25T12:38:06.107Z,48.93
2019-01-25T12:40:34.858Z,52.93
2019-01-25T12:43:03.822Z,49.40
2019-01-25T12:45:32.690Z,50.00
2019-01-25T12:48:01.181Z,48.33
2019-01-25T12:50:38.399Z,44.57
2019-01-25T12:53:08.882Z,42.90
2019-01-25T12:55:38.672Z,46.63
2019-01-25T12:58:07.202Z,39.10
2019-01-25T13:00:35.952Z,34.83
2019-01-25T13:03:05.412Z,48.47
2019-01-25T13:05:33.824Z,36.70
2019-01-25T13:08:02.275Z,38.87
2019-01-25T13:10:30.688Z,35.30
2019-01-25T13:12:59.211Z,31.60
2019-01-25T13:15:27.719Z,40.10
2019-01-25T13:17:56.177Z,37.53
2019-01-25T13:20:29.972Z,38.63
2019-01-25T13:22:58.454Z,45.97
2019-01-25T13:25:26.903Z,40.20
2019-01-25T13:27:55.461Z,38.20
2019-01-25T13:30:31.821Z,35.80
2019-01-25T13:33:01.017Z,41.10
2019-01-25T13:35:29.653Z,38.30
2019-01-25T13:37:58.214Z,40.73
2019-01-25T13:40:28.180Z,60.17
2019-01-25T13:42:57.551Z,68.90
2019-01-25T13:45:26.045Z,36.13
2019-01-25T13:47:54.816Z,39.00
2019-01-25T13:50:28.880Z,37.30
2019-01-25T13:52:57.369Z,40.43
2019-01-25T13:55:26.761Z,47.27
2019-01-25T13:57:55.263Z,33.07
2019-01-25T14:00:47.244Z,41.33
2019-01-25T14:03:15.682Z,37.20
2019-01-25T14:05:46.058Z,35.03
2019-01-25T14:08:14.537Z,35.00
2019-01-25T14:10:42.972Z,36.10
2019-01-25T14:13:11.458Z,37.57
2019-01-25T14:15:40.971Z,41.10
2019-01-25T14:18:09.398Z,33.17
2019-01-25T14:20:37.838Z,40.10
2019-01-25T14:23:06.261Z,41.00
2019-01-25T14:25:34.692Z,41.60
2019-01-25T14:28:03.096Z,34.43
2019-01-25T14:30:41.174Z,41.43
2019-01-25T14:33:09.721Z,33.53
2019-01-25T14:35:38.228Z,42.30
2019-01-25T14:38:07.481Z,42.47
2019-01-25T14:40:36.066Z,38.60
2019-01-25T14:43:04.494Z,38.87
2019-01-25T14:45:32.923Z,39.67
2019-01-25T14:48:01.328Z,41.20
2019-01-25T14:50:31.870Z,39.80
2019-01-25T14:53:00.637Z,34.40
2019-01-25T14:55:29.167Z,35.07
2019-01-25T14:57:57.712Z,40.50
2019-01-25T15:00:26.232Z,39.37
2019-01-25T15:02:54.760Z,39.37
2019-01-25T15:05:23.269Z,40.50
2019-01-25T15:07:51.704Z,33.33
2019-01-25T15:10:22.642Z,37.73
2019-01-25T15:12:52.121Z,36.77
2019-01-25T15:15:20.613Z,35.43
2019-01-25T15:17:49.292Z,28.63
2019-01-25T15:20:20.624Z,32.53
2019-01-25T15:22:49.054Z,37.43
2019-01-25T15:25:17.601Z,34.63
2019-01-25T15:27:46.034Z,95.40
2019-01-25T15:30:20.215Z,41.50
2019-01-25T15:32:48.890Z,36.20
2019-01-25T15:35:19.462Z,40.73
2019-01-25T15:37:47.945Z,35.73
2019-01-25T15:40:18.566Z,33.20
2019-01-25T15:42:47.141Z,50.07
2019-01-25T15:45:17.625Z,42.03
2019-01-25T15:47:46.210Z,34.67
2019-01-25T15:50:23.779Z,37.97
2019-01-25T15:52:52.188Z,36.77
2019-01-25T15:55:20.971Z,33.30
2019-01-25T15:57:49.463Z,42.27
2019-01-25T16:00:20.612Z,37.33
2019-01-25T16:02:49.383Z,35.87
2019-01-25T16:05:20.216Z,36.00
2019-01-25T16:07:49.937Z,36.20
2019-01-25T16:10:20.530Z,40.83
2019-01-25T16:12:49.472Z,32.50
2019-01-25T16:15:20.716Z,43.20
2019-01-25T16:17:49.661Z,39.13
2019-01-25T16:20:19.142Z,47.73
2019-01-25T16:22:48.893Z,40.73
2019-01-25T16:25:23.155Z,41.10
2019-01-25T16:27:51.556Z,33.83
2019-01-25T16:30:23.133Z,38.60
2019-01-25T16:32:51.540Z,36.07
2019-01-25T16:35:19.960Z,42.13
2019-01-25T16:37:49.723Z,35.90
2019-01-25T16:40:21.242Z,33.70
2019-01-25T16:42:49.734Z,33.50
2019-01-25T16:45:20.803Z,36.87
2019-01-25T16:47:49.571Z,47.07
2019-01-25T16:50:23.567Z,40.80
2019-01-25T16:52:48.261Z,38.47
2019-01-25T16:55:16.950Z,38.43
2019-01-25T16:57:45.432Z,45.83
2019-01-25T17:00:22.822Z,36.70
2019-01-25T17:02:51.229Z,38.90
2019-01-25T17:05:20.012Z,34.33
2019-01-25T17:07:48.432Z,35.33
2019-01-25T17:10:17.300Z,35.40
2019-01-25T17:12:45.790Z,36.00
2019-01-25T17:15:15.971Z,36.67
2019-01-25T17:17:44.518Z,36.10
2019-01-25T17:20:24.231Z,34.07
2019-01-25T17:22:52.636Z,33.57
2019-01-25T17:25:21.503Z,34.67
2019-01-25T17:27:50.067Z,28.73
2019-01-25T17:30:21.567Z,32.90
2019-01-25T17:32:50.525Z,32.10
2019-01-25T17:35:19.228Z,30.57
2019-01-25T17:37:47.640Z,31.17
2019-01-25T17:40:18.781Z,29.03
2019-01-25T17:42:47.331Z,30.20
2019-01-25T17:45:16.383Z,27.37
2019-01-25T17:47:45.235Z,27.37
2019-01-25T17:50:15.199Z,27.03
2019-01-25T17:52:43.647Z,23.60
2019-01-25T17:55:14.348Z,28.80
2019-01-25T17:57:42.916Z,27.60
2019-01-25T18:00:28.179Z,30.80
2019-01-25T18:02:56.612Z,25.10
2019-01-25T18:05:25.100Z,34.97
2019-01-25T18:07:54.482Z,34.20
2019-01-25T18:10:24.772Z,130.63
2019-01-25T18:12:53.280Z,53.37
2019-01-25T18:15:21.855Z,48.03
2019-01-25T18:17:50.358Z,38.33
2019-01-25T18:20:21.496Z,35.93
2019-01-25T18:22:49.921Z,27.90
2019-01-25T18:25:24.564Z,27.20
2019-01-25T18:27:56.437Z,24.70
2019-01-25T18:30:40.090Z,24.00
2019-01-25T18:33:08.936Z,19.57
2019-01-25T18:35:37.345Z,21.17
2019-01-25T18:38:06.054Z,24.90
2019-01-25T18:40:34.468Z,17.30
2019-01-25T18:43:02.910Z,19.27
2019-01-25T18:45:31.316Z,15.23
2019-01-25T18:47:59.744Z,24.60
2019-01-25T18:50:28.154Z,24.10
2019-01-25T18:52:56.653Z,24.23
2019-01-25T18:55:26.045Z,21.37
2019-01-25T18:57:54.468Z,18.27
2019-01-25T19:00:23.467Z,18.50
2019-01-25T19:02:51.901Z,47.20
2019-01-25T19:05:20.382Z,28.27
2019-01-25T19:07:48.868Z,26.70
2019-01-25T19:10:25.987Z,19.50
2019-01-25T19:12:54.491Z,24.97
2019-01-25T19:15:28.615Z,19.57
2019-01-25T19:17:57.116Z,28.30
2019-01-25T19:20:25.604Z,22.00
2019-01-25T19:22:54.107Z,20.97
2019-01-25T19:25:22.585Z,26.20
2019-01-25T19:27:51.026Z,36.33
2019-01-25T19:30:27.961Z,25.63
2019-01-25T19:32:57.390Z,20.57
2019-01-25T19:35:25.870Z,24.60
2019-01-25T19:37:54.378Z,24.10
2019-01-25T19:40:31.835Z,19.47
2019-01-25T19:43:00.344Z,31.37
2019-01-25T19:45:28.836Z,25.13
2019-01-25T19:47:57.400Z,26.63
2019-01-25T19:50:27.377Z,27.97
2019-01-25T19:52:55.884Z,22.07
2019-01-25T19:55:27.045Z,20.17
2019-01-25T19:57:55.847Z,19.23
2019-01-25T20:00:27.369Z,19.90
2019-01-25T20:02:55.908Z,18.53
2019-01-25T20:05:26.649Z,20.00
2019-01-25T20:07:55.140Z,22.00
2019-01-25T20:10:23.772Z,27.30
2019-01-25T20:12:52.537Z,26.23
2019-01-25T20:15:23.795Z,15.20
2019-01-25T20:17:52.366Z,13.07
2019-01-25T20:20:23.088Z,14.50
2019-01-25T20:22:51.579Z,17.23
2019-01-25T20:25:20.120Z,17.93
2019-01-25T20:27:48.716Z,22.77
2019-01-25T20:30:20.083Z,20.53
2019-01-25T20:32:48.512Z,37.57
2019-01-25T20:35:19.383Z,50.83
2019-01-25T20:37:47.817Z,34.57
2019-01-25T20:40:17.270Z,15.00
2019-01-25T20:42:46.907Z,19.40
2019-01-25T20:45:30.233Z,21.70
2019-01-25T20:47:58.661Z,23.40
2019-01-25T20:50:28.823Z,23.83
2019-01-25T20:52:57.514Z,24.50
2019-01-25T20:55:26.358Z,33.27
2019-01-25T20:57:55.740Z,33.93
2019-01-25T21:00:29.858Z,30.40
2019-01-25T21:02:58.480Z,22.00
2019-01-25T21:05:26.967Z,27.17
2019-01-25T21:07:55.661Z,18.60
2019-01-25T21:10:25.531Z,44.37
2019-01-25T21:12:54.414Z,14.47
2019-01-25T21:15:34.763Z,19.27
2019-01-25T21:17:58.068Z,16.53
2019-01-25T21:20:34.940Z,19.37
2019-01-25T21:23:04.001Z,21.50
2019-01-25T21:25:32.563Z,21.33
2019-01-25T21:28:00.999Z,21.00
2019-01-25T21:30:32.031Z,21.43
2019-01-25T21:33:01.547Z,16.60
2019-01-25T21:35:30.976Z,18.30
2019-01-25T21:37:59.501Z,17.60
2019-01-25T21:40:29.849Z,12.17
2019-01-25T21:42:58.408Z,11.77
2019-01-25T21:45:29.278Z,15.70
2019-01-25T21:47:57.779Z,16.33
2019-01-25T21:50:29.770Z,13.77
2019-01-25T21:52:58.330Z,14.40
2019-01-25T21:55:26.747Z,14.20
2019-01-25T21:57:55.607Z,12.13
2019-01-25T22:00:26.527Z,16.23
2019-01-25T22:02:55.021Z,15.00
2019-01-25T22:05:23.570Z,12.60
2019-01-25T22:07:52.070Z,12.17
2019-01-25T22:10:23.580Z,12.40
2019-01-25T22:12:51.994Z,11.70
2019-01-25T22:15:20.486Z,16.13
2019-01-25T22:17:49.236Z,17.63
2019-01-25T22:20:20.129Z,14.70
2019-01-25T22:22:48.520Z,14.30
2019-01-25T22:25:17.020Z,14.77
2019-01-25T22:27:47.069Z,16.30
2019-01-25T22:30:20.559Z,14.87
2019-01-25T22:32:49.050Z,13.97
2019-01-25T22:35:17.640Z,14.97
2019-01-25T22:37:46.044Z,25.27
2019-01-25T22:40:25.705Z,17.60
2019-01-25T22:42:54.176Z,15.30
2019-01-25T22:45:27.236Z,13.00
2019-01-25T22:47:56.599Z,17.77
2019-01-25T22:50:27.654Z,15.10
2019-01-25T22:52:56.130Z,17.43
2019-01-25T22:55:45.435Z,13.83
2019-01-25T22:58:13.858Z,13.47
2019-01-25T23:00:58.530Z,13.97
2019-01-25T23:03:35.919Z,14.07
2019-01-25T23:06:33.981Z,12.47
2019-01-25T23:09:08.415Z,12.20
2019-01-25T23:11:36.897Z,17.33
2019-01-25T23:14:06.360Z,25.07
2019-01-25T23:16:34.782Z,39.67
2019-01-25T23:19:03.216Z,28.10
2019-01-25T23:21:31.628Z,25.80
2019-01-25T23:24:00.075Z,22.83
2019-01-25T23:26:28.476Z,16.47
2019-01-25T23:28:56.924Z,14.10
2019-01-25T23:31:25.512Z,13.80
2019-01-25T23:33:53.939Z,11.90
2019-01-25T23:36:22.356Z,16.47
2019-01-25T23:38:50.781Z,13.40
2019-01-25T23:41:19.266Z,12.53
2019-01-25T23:43:47.703Z,14.17
2019-01-25T23:46:16.105Z,14.03
2019-01-25T23:48:44.536Z,18.57
2019-01-25T23:51:12.946Z,17.50
2019-01-25T23:53:41.360Z,22.57
2019-01-25T23:56:09.798Z,17.57
2019-01-25T23:58:38.226Z,28.23
